createdAt,value
2024-03-16T00:02:36.022Z,99912.84
2024-03-16T00:05:24.020Z,99876.88
2024-03-16T00:08:12.024Z,99894.25
2024-03-16T00:11:01.117Z,99917.69
2024-03-16T00:13:49.048Z,99913.19
2024-03-16T00:16:37.645Z,99859.53
2024-03-16T00:19:25.516Z,99895.72
2024-03-16T00:22:13.804Z,99914.09
2024-03-16T00:25:02.446Z,99923.75
2024-03-16T00:27:54.115Z,99921.41
2024-03-16T00:30:42.304Z,99917.13
2024-03-16T00:33:30.485Z,99916.16
2024-03-16T00:36:18.787Z,99889.16
2024-03-16T00:39:16.810Z,99900.47
2024-03-16T00:42:05.298Z,99897.31
2024-03-16T00:44:53.627Z,99908.31
2024-03-16T00:47:41.463Z,99904.69
2024-03-16T00:50:29.543Z,99908.53
2024-03-16T00:53:19.188Z,99898.09
2024-03-16T00:56:07.395Z,99900.78
2024-03-16T00:58:55.407Z,99902.31
2024-03-16T01:01:44.086Z,99879.75
2024-03-16T01:04:34.086Z,99875.38
2024-03-16T01:07:22.171Z,99904.59
2024-03-16T01:10:13.031Z,99899.44
2024-03-16T01:13:01.081Z,99901.84
2024-03-16T01:15:49.135Z,99901.91
2024-03-16T01:18:37.250Z,99909.22
2024-03-16T01:21:25.583Z,99879.44
2024-03-16T01:24:13.724Z,99837.59
2024-03-16T01:27:04.818Z,99879.00
2024-03-16T01:29:52.575Z,99905.22
2024-03-16T01:32:40.549Z,99897.88
2024-03-16T01:35:28.400Z,99865.59
2024-03-16T01:38:16.723Z,99908.28
2024-03-16T01:41:04.804Z,99858.63
2024-03-16T01:43:52.900Z,99839.94
2024-03-16T01:46:42.801Z,99903.31
2024-03-16T01:49:30.906Z,99852.06
2024-03-16T01:52:18.925Z,99894.09
2024-03-16T01:55:07.135Z,99898.97
2024-03-16T01:57:55.198Z,99901.31
2024-03-16T02:00:48.707Z,99880.13
2024-03-16T02:03:37.344Z,99896.34
2024-03-16T02:06:25.881Z,99919.84
2024-03-16T02:09:13.914Z,99908.63
2024-03-16T02:12:01.765Z,99913.00
2024-03-16T02:14:49.687Z,99905.13
2024-03-16T02:17:37.975Z,99922.13
2024-03-16T02:20:27.850Z,99926.78
2024-03-16T02:23:16.661Z,99928.59
2024-03-16T02:26:06.050Z,99923.19
2024-03-16T02:28:54.066Z,99917.16
2024-03-16T02:31:42.677Z,99903.72
2024-03-16T02:34:30.586Z,99919.38
2024-03-16T02:37:20.252Z,99927.13
2024-03-16T02:40:12.813Z,99903.69
2024-03-16T02:43:00.982Z,99944.28
2024-03-16T02:45:48.978Z,99943.44
2024-03-16T02:48:36.991Z,99953.72
2024-03-16T02:51:25.140Z,99943.16
2024-03-16T02:54:13.401Z,99942.03
2024-03-16T02:57:05.160Z,99902.53
2024-03-16T02:59:53.034Z,99940.09
2024-03-16T03:02:41.035Z,99910.00
2024-03-16T03:05:29.118Z,99957.69
2024-03-16T03:08:17.133Z,99921.19
2024-03-16T03:11:05.736Z,99963.72
2024-03-16T03:13:53.698Z,99951.16
2024-03-16T03:16:41.676Z,99964.59
2024-03-16T03:19:29.554Z,99939.25
2024-03-16T03:22:17.824Z,99968.75
2024-03-16T03:25:06.581Z,99964.09
2024-03-16T03:27:54.701Z,99925.81
2024-03-16T03:30:43.437Z,99957.41
2024-03-16T03:33:31.999Z,99961.16
2024-03-16T03:36:19.909Z,99952.13
2024-03-16T03:39:08.247Z,99989.56
2024-03-16T03:41:56.262Z,99949.63
2024-03-16T03:44:51.685Z,99986.53
2024-03-16T03:47:51.652Z,99989.84
2024-03-16T03:50:40.040Z,99994.47
2024-03-16T03:53:28.163Z,99975.25
2024-03-16T03:56:16.230Z,99931.84
2024-03-16T03:59:04.203Z,99990.16
2024-03-16T04:01:52.327Z,99971.91
2024-03-16T04:04:41.779Z,99981.81
2024-03-16T04:07:29.851Z,99966.84
2024-03-16T04:10:17.784Z,100003.78
2024-03-16T04:13:06.086Z,99992.63
2024-03-16T04:15:54.052Z,100007.66
2024-03-16T04:18:42.037Z,100001.28
2024-03-16T04:21:30.058Z,100016.00
2024-03-16T04:24:18.073Z,100018.44
2024-03-16T04:27:06.407Z,99946.50
2024-03-16T04:29:54.556Z,100018.34
2024-03-16T04:32:42.862Z,100019.59
2024-03-16T04:35:30.891Z,100018.66
2024-03-16T04:38:18.858Z,99996.97
2024-03-16T04:41:07.089Z,99984.72
2024-03-16T04:43:55.033Z,100019.81
2024-03-16T04:46:42.993Z,100038.19
2024-03-16T04:49:30.897Z,100043.13
2024-03-16T04:52:18.944Z,100033.34
2024-03-16T04:55:07.395Z,100036.84
2024-03-16T04:57:55.524Z,100039.59
2024-03-16T05:00:43.445Z,100015.19
2024-03-16T05:03:32.149Z,100020.53
2024-03-16T05:06:20.033Z,100059.38
2024-03-16T05:09:09.413Z,100057.69
2024-03-16T05:11:57.539Z,100056.41
2024-03-16T05:14:45.440Z,100034.19
2024-03-16T05:17:33.787Z,100066.97
2024-03-16T05:20:22.897Z,100017.53
2024-03-16T05:23:10.868Z,100053.25
2024-03-16T05:26:00.342Z,100072.16
2024-03-16T05:28:48.871Z,100040.81
2024-03-16T05:31:37.354Z,100060.38
2024-03-16T05:34:25.523Z,100069.34
2024-03-16T05:37:13.542Z,100074.75
2024-03-16T05:40:01.724Z,100054.44
2024-03-16T05:42:49.659Z,100067.72
2024-03-16T05:45:37.597Z,100069.50
2024-03-16T05:48:25.420Z,99998.03
2024-03-16T05:51:14.059Z,100049.91
2024-03-16T05:54:05.283Z,100063.84
2024-03-16T05:56:53.613Z,100052.34
2024-03-16T05:59:41.503Z,100058.81
2024-03-16T06:02:29.471Z,100075.75
2024-03-16T06:05:17.400Z,100073.69
2024-03-16T06:08:06.236Z,100074.41
2024-03-16T06:10:54.381Z,100075.44
2024-03-16T06:13:42.525Z,100077.56
2024-03-16T06:16:30.949Z,100009.69
2024-03-16T06:19:19.049Z,100064.81
2024-03-16T06:22:09.011Z,100068.09
2024-03-16T06:24:56.960Z,100077.41
2024-03-16T06:27:51.296Z,100082.66
2024-03-16T06:30:40.920Z,100037.56
2024-03-16T06:33:32.491Z,100057.06
2024-03-16T06:36:21.243Z,100071.03
2024-03-16T06:39:14.054Z,100066.00
2024-03-16T06:42:02.125Z,100006.66
2024-03-16T06:44:51.540Z,100086.31
2024-03-16T06:47:39.694Z,100078.78
2024-03-16T06:50:27.757Z,100066.72
2024-03-16T06:53:16.379Z,100061.13
2024-03-16T06:56:05.494Z,100069.13
2024-03-16T06:58:53.604Z,100067.06
2024-03-16T07:01:41.587Z,100090.47
2024-03-16T07:04:30.037Z,100087.53
2024-03-16T07:07:18.003Z,100085.41
2024-03-16T07:10:07.678Z,100095.47
2024-03-16T07:12:56.021Z,100100.78
2024-03-16T07:15:45.363Z,100079.03
2024-03-16T07:18:34.424Z,100095.00
2024-03-16T07:21:25.796Z,100092.94
2024-03-16T07:24:16.481Z,100081.41
2024-03-16T07:27:08.635Z,100068.97
2024-03-16T07:29:57.472Z,100106.69
2024-03-16T07:32:45.430Z,100083.56
2024-03-16T07:35:33.350Z,100076.19
2024-03-16T07:38:21.220Z,100040.75
2024-03-16T07:41:10.088Z,100107.22
2024-03-16T07:43:57.944Z,100067.50
2024-03-16T07:46:48.103Z,100098.59
2024-03-16T07:49:36.156Z,100108.56
2024-03-16T07:52:24.247Z,100061.44
2024-03-16T07:55:13.168Z,100063.09
2024-03-16T07:58:01.429Z,100054.50
2024-03-16T08:00:49.593Z,100087.63
2024-03-16T08:03:38.017Z,100085.50
2024-03-16T08:06:26.019Z,100108.72
2024-03-16T08:09:14.324Z,100102.00
2024-03-16T08:12:02.326Z,100102.88
2024-03-16T08:14:50.184Z,100114.94
2024-03-16T08:17:38.076Z,100122.13
2024-03-16T08:20:26.358Z,100091.69
2024-03-16T08:23:14.291Z,100080.00
2024-03-16T08:26:02.360Z,100096.19
2024-03-16T08:28:50.246Z,100084.03
2024-03-16T08:31:38.116Z,100136.03
2024-03-16T08:34:26.623Z,100091.75
2024-03-16T08:37:17.426Z,100086.75
2024-03-16T08:40:13.524Z,100118.19
2024-03-16T08:43:02.190Z,100122.75
2024-03-16T08:45:50.274Z,100104.13
2024-03-16T08:48:38.352Z,100125.28
2024-03-16T08:51:26.890Z,100124.66
2024-03-16T08:54:15.035Z,100107.81
2024-03-16T08:57:03.445Z,100106.06
2024-03-16T08:59:52.521Z,100091.41
2024-03-16T09:02:40.386Z,100106.59
2024-03-16T09:05:28.222Z,100082.81
2024-03-16T09:08:16.122Z,100121.22
2024-03-16T09:11:04.019Z,100133.31
2024-03-16T09:13:52.104Z,100119.97
2024-03-16T09:16:42.086Z,100099.16
2024-03-16T09:19:30.398Z,100121.38
2024-03-16T09:22:18.448Z,100108.84
2024-03-16T09:25:07.772Z,100108.28
2024-03-16T09:27:55.947Z,100108.59
2024-03-16T09:30:46.437Z,100130.53
2024-03-16T09:33:34.852Z,100112.56
2024-03-16T09:36:22.890Z,100083.31
2024-03-16T09:39:11.936Z,100041.66
2024-03-16T09:42:00.000Z,100110.00
